Leon, OK (73441)

11:08 PM CST on February 20, 2017 (GMT -0600)
Bulcher | | Change Station
Active Advisory: Dense Fog Advisory

Elev 850 ft 33.80 °N, 97.42 °W | Updated 6 seconds ago

Clear
Clear
56.4 °F
Feels Like 56.4 °F
N
0.0
Wind Variable Wind from NW
Gusts 0.0 mph

Today
High -- | Low -- °F
--% Chance of Precip.
Yesterday
High -- | Low -- °F
Precip. -- in
Pressure 29.94 in
Visibility 10.0 miles
Clouds Clear
Dew Point 54 °F
Humidity 93%
Rainfall 0.87 in
Snow Depth Not available.
7:08 AM 6:18 PM
Waning Crescent, 28% visible
METAR KGLE 210455Z AUTO 19005KT 10SM CLR 12/11 A2994 RMK AO2 T01200105
Pressure 29.94 in
Visibility 10.0 miles
Clouds Clear
Dew Point 54 °F
Humidity 93%
Rainfall 0.87 in
Snow Depth Not available.
7:08 AM 6:18 PM
Waning Crescent, 28% visible
METAR KGLE 210455Z AUTO 19005KT 10SM CLR 12/11 A2994 RMK AO2 T01200105

Get Your Daily Forecast Email!

Thanks for signing up!

Be on the lookout for a verification email in your inbox.

You'll start receiving the daily forecast at 8 AM.

×

10-Day Weather Forecast

Almanac

Astronomy

Feb. 20, 2017 Rise Set
Actual Time
Civil Twilight
Nautical Twilight
Astronomical Twilight
Moon
Length of Visible Light
Length of Day
Tomorrow will be .
, % of the Moon is Illuminated

Today's Extremes

State Highs State Lows

Community

WunderPhotos

Upload Photos

1,962,540 photos uploaded!

WunderBlog® & News

Nearby

Air Quality

  Air Quality AQ Index Pollutant
Not available.

Snow Depth

Station Depth Elevation

Earthquake Activity

City Distance Mag. Time & Date
Minimum magnitude displayed is 2.5.

Coastal Water Temperatures

Place Temperature

Stations

Nearby Weather Stations

Station Location Temp. Windchill Dew Point Humidity Wind Precip. Elev Updated Type
                   

Watches & Warnings

Dense Fog Advisory
Issued: 10:32 PM CST Feb. 20, 2017 – National Weather Service

... Dense fog advisory in effect until 9 am CST Tuesday...

The National Weather Service in Norman has issued a dense fog
advisory, which is in effect until 9 am CST Tuesday.

* Visibility... frequently less than 1/4 mile.

* Impacts... areas of dense fog will reduce visibility through
mid-morning Tuesday.

Precautionary/preparedness actions...

A dense fog advisory means visibilities will frequently be
reduced to less than one quarter mile. If driving, slow down, use
your headlights, and leave plenty of distance ahead of you.